Peachland, Canada
Current Conditions -  °F | °C
As of 6:10 AM on Monday 26 Jan 2015 (Local Time) from CYLW Reporting Station
Haze Haze  
Wind Chill: 30°   Ceiling: 300
Heat Index: 34°   Visibility: 1.2mi
Dew Point: 34°   Wind: 5mph
Humidity: 100%   Direction: 130°SE
Pressure: 30.08"   Gusts: NA
Location:  49.77°N, 119.74°W
Report Text: CYLW 261410Z AUTO 13004KT 1 1/4SM BR OVC003 01/01 A3008 RMK SLP200
Loading
Personal Weather Stations






























Interactive Weather Map New forecast layout! Learn more

10-Day Weather Forecast

Advertisements
Track Severe Weather on mobile